Weather History for Hebbronville, TX

Change the Weather History Date:

Monday, September 23, 2013

  Actual Average (KLRD) Record (KLRD)
Temperature  
Mean Temperature 75 °F 81 °F  
Max Temperature 89 °F 91 °F 103 °F (2005)
Min Temperature 61 °F 71 °F 52 °F (1975)
Degree Days  
Heating Degree Days 0 0  
Month to date heating degree days 0  
Since 1 July heating degree days 0  
Cooling Degree Days 10 16  
Month to date cooling degree days 434  
Year to date cooling degree days 3677  
Growing Degree Days 25 (Base 50)    
Moisture  
Dew Point 50 °F    
Average Humidity 48    
Maximum Humidity 77    
Minimum Humidity 13    
Precipitation  
Precipitation 0.00 in 0.09 in 2.95 in (1946)
Month to date precipitation 2.32  
Year to date precipitation 15.31  
Sea Level Pressure  
Sea Level Pressure 29.81 in    
Wind  
Wind Speed 3 mph (North)    
Max Wind Speed 9 mph    
Max Gust Speed -    
Visibility 10 miles    
Events      
T = Trace of Precipitation, MM = Missing Value Source: NWS Daily Summary

Daily Weather History Graph

Daily Weather History Graph

Search for Another Location

Airport:

Trip Planner

Search our weather history database for the weather conditions in past years. The results will help you decide how hot, cold, wet, or windy it might be!

Date:

Astronomy

Sep. 23, 2013 Rise Set
Actual Time 7:24 AM CDT 7:29 PM CDT
Civil Twilight 7:00 AM CDT 7:53 PM CDT
Nautical Twilight 6:33 AM CDT 8:20 PM CDT
Astronomical Twilight 6:06 AM CDT 8:47 PM CDT
Moon 10:28 PM CDT (9/23) 11:20 AM CDT (9/23)
Length of Visible Light 12h 52m
Length of Day
12h 05m
Waning Gibbous, 81% of the Moon is Illuminated
Sep 23
Waning Gibbous
Sep 26
Last Quarter
Oct 4
New
Oct 11
First Quarter
Oct 18
Full

Hourly Weather History & Observations

Time (CDT) Temp. Dew Point Humidity Pressure Visibility Wind Dir Wind Speed Gust Speed Precip Events Conditions
12:15 AM 67.5 °F 59.5 °F 76% 29.82 in 10.0 mi NNW 3.5 mph - N/A   Clear
12:35 AM 67.1 °F 59.0 °F 75% 29.82 in 10.0 mi NNW 3.5 mph - N/A   Clear
12:55 AM 66.7 °F 58.6 °F 75% 29.82 in 10.0 mi Calm Calm - N/A   Clear
1:15 AM 66.0 °F 58.5 °F 77% 29.81 in 10.0 mi NNW 3.5 mph - N/A   Clear
1:35 AM 66.2 °F 57.9 °F 75% 29.80 in 10.0 mi NNW 3.5 mph - N/A   Clear
1:55 AM 65.7 °F 57.2 °F 74% 29.80 in 10.0 mi NW 3.5 mph - N/A   Clear
2:15 AM 65.5 °F 56.7 °F 73% 29.80 in 10.0 mi NW 3.5 mph - N/A   Clear
2:35 AM 65.7 °F 56.1 °F 71% 29.80 in 10.0 mi NNW 4.6 mph - N/A   Clear
2:55 AM 66.0 °F 55.6 °F 69% 29.80 in 10.0 mi North 4.6 mph - N/A   Clear
3:15 AM 65.3 °F 55.6 °F 71% 29.80 in 10.0 mi NNW 4.6 mph - N/A   Clear
3:35 AM 64.0 °F 55.6 °F 74% 29.79 in 10.0 mi North 4.6 mph - N/A   Clear
3:55 AM 63.5 °F 55.4 °F 75% 29.79 in 10.0 mi North 4.6 mph - N/A   Clear
4:15 AM 63.9 °F 54.5 °F 72% 29.78 in 10.0 mi North 3.5 mph - N/A   Clear
4:35 AM 64.2 °F 53.8 °F 69% 29.78 in 10.0 mi Calm Calm - N/A   Clear
4:55 AM 63.7 °F 52.9 °F 68% 29.78 in 10.0 mi Calm Calm - N/A   Clear
5:15 AM 63.1 °F 52.9 °F 69% 29.79 in 10.0 mi WNW 3.5 mph - N/A   Clear
5:35 AM 63.0 °F 52.3 °F 68% 29.79 in 10.0 mi NNW 3.5 mph - N/A   Clear
5:55 AM 63.0 °F 51.8 °F 67% 29.79 in 10.0 mi NW 6.9 mph - N/A   Clear
6:15 AM 61.9 °F 52.2 °F 70% 29.80 in 10.0 mi NW 5.8 mph - N/A   Clear
6:35 AM 61.5 °F 52.0 °F 71% 29.80 in 10.0 mi NW 6.9 mph - N/A   Clear
6:55 AM 61.0 °F 51.6 °F 71% 29.80 in 10.0 mi NW 5.8 mph - N/A   Clear
7:15 AM 61.5 °F 51.1 °F 69% 29.81 in 10.0 mi NW 5.8 mph - N/A   Clear
7:35 AM 61.7 °F 50.9 °F 68% 29.81 in 10.0 mi WNW 5.8 mph - N/A   Clear
7:55 AM 61.7 °F 51.8 °F 70% 29.81 in 10.0 mi NW 6.9 mph - N/A   Clear
8:15 AM 63.1 °F 52.9 °F 69% 29.82 in 10.0 mi Calm Calm - N/A   Clear
8:35 AM 65.7 °F 54.9 °F 68% 29.82 in 10.0 mi WNW 3.5 mph - N/A   Clear
8:55 AM 68.0 °F 55.9 °F 65% 29.83 in 10.0 mi Calm Calm - N/A   Clear
9:15 AM 70.5 °F 54.9 °F 58% 29.83 in 10.0 mi Calm Calm - N/A   Clear
9:35 AM 72.3 °F 54.1 °F 53% 29.84 in 10.0 mi Calm Calm - N/A   Clear
9:55 AM 74.1 °F 54.3 °F 50% 29.84 in 10.0 mi Calm Calm - N/A   Clear
10:15 AM 75.6 °F 54.9 °F 48% 29.85 in 10.0 mi Calm Calm - N/A   Clear
10:35 AM 77.2 °F 53.4 °F 44% 29.85 in 10.0 mi Calm Calm - N/A   Clear
10:55 AM 78.8 °F 49.8 °F 36% 29.85 in 10.0 mi Calm Calm - N/A   Clear
11:15 AM 79.7 °F 48.9 °F 34% 29.85 in 10.0 mi Calm Calm - N/A   Clear
11:35 AM 80.6 °F 48.4 °F 32% 29.85 in 10.0 mi NNE 3.5 mph - N/A   Clear
11:55 AM 81.5 °F 48.0 °F 31% 29.85 in 10.0 mi Calm Calm - N/A   Clear
12:15 PM 81.9 °F 48.6 °F 31% 29.84 in 10.0 mi North 4.6 mph - N/A   Clear
12:35 PM 82.9 °F 46.8 °F 28% 29.84 in 10.0 mi Calm Calm - N/A   Clear
1:15 PM 84.4 °F 44.2 °F 24% 29.82 in 10.0 mi WNW 6.9 mph - N/A   Clear
1:35 PM 84.7 °F 43.7 °F 24% 29.81 in 10.0 mi Calm Calm - N/A   Clear
1:55 PM 85.6 °F 43.5 °F 23% 29.80 in 10.0 mi NNW 4.6 mph - N/A   Clear
2:15 PM 86.4 °F 41.9 °F 21% 29.79 in 10.0 mi NW 4.6 mph - N/A   Clear
2:35 PM 86.7 °F 39.4 °F 19% 29.79 in 10.0 mi NNW 3.5 mph - N/A   Clear
2:55 PM 87.4 °F 39.2 °F 18% 29.78 in 10.0 mi Calm Calm - N/A   Clear
3:15 PM 88.0 °F 36.1 °F 16% 29.78 in 10.0 mi NW 4.6 mph - N/A   Clear
3:35 PM 88.2 °F 35.2 °F 15% 29.78 in 10.0 mi WNW 4.6 mph - N/A   Clear
3:55 PM 88.5 °F 32.5 °F 14% 29.78 in 10.0 mi WNW 3.5 mph - N/A   Clear
4:15 PM 88.7 °F 31.5 °F 13% 29.77 in 10.0 mi NNE 6.9 mph - N/A   Clear
4:35 PM 89.4 °F 32.0 °F 13% 29.77 in 10.0 mi NNE 4.6 mph - N/A   Clear
4:55 PM 89.6 °F 36.9 °F 16% 29.77 in 10.0 mi East 6.9 mph - N/A   Clear
5:15 PM 89.8 °F 38.8 °F 17% 29.77 in 10.0 mi East 9.2 mph - N/A   Clear
5:35 PM 89.2 °F 40.6 °F 18% 29.77 in 10.0 mi East 5.8 mph - N/A   Clear
5:55 PM 89.1 °F 39.9 °F 18% 29.76 in 10.0 mi ENE 4.6 mph - N/A   Clear
6:15 PM 88.7 °F 40.1 °F 18% 29.77 in 10.0 mi East 5.8 mph - N/A   Clear
6:35 PM 88.0 °F 40.8 °F 19% 29.77 in 10.0 mi East 4.6 mph - N/A   Clear
6:55 PM 87.1 °F 44.4 °F 23% 29.77 in 10.0 mi East 3.5 mph - N/A   Clear
7:15 PM 85.5 °F 48.2 °F 27% 29.77 in 10.0 mi East 3.5 mph - N/A   Clear
7:35 PM 83.5 °F 50.5 °F 32% 29.78 in 10.0 mi East 4.6 mph - N/A   Clear
7:55 PM 81.7 °F 52.0 °F 36% 29.78 in 10.0 mi East 5.8 mph - N/A   Clear
8:15 PM 79.5 °F 51.4 °F 37% 29.78 in 10.0 mi East 5.8 mph - N/A   Clear
8:35 PM 77.7 °F 52.9 °F 42% 29.79 in 10.0 mi East 5.8 mph - N/A   Clear
8:55 PM 76.1 °F 53.6 °F 45% 29.80 in 10.0 mi ESE 4.6 mph - N/A   Clear
9:15 PM 75.4 °F 54.7 °F 48% 29.81 in 10.0 mi Calm Calm - N/A   Clear
9:35 PM 74.7 °F 55.6 °F 51% 29.82 in 10.0 mi ESE 3.5 mph - N/A   Clear
9:55 PM 73.8 °F 55.0 °F 52% 29.82 in 10.0 mi ESE 4.6 mph - N/A   Clear
10:15 PM 73.6 °F 54.7 °F 51% 29.83 in 10.0 mi East 3.5 mph - N/A   Clear
10:35 PM 73.8 °F 54.5 °F 51% 29.83 in 10.0 mi East 3.5 mph - N/A   Clear
10:55 PM 73.4 °F 55.0 °F 52% 29.84 in 10.0 mi Calm Calm - N/A   Clear
11:15 PM 71.6 °F 55.9 °F 58% 29.85 in 10.0 mi SSW 5.8 mph - N/A   Clear
11:35 PM 69.3 °F 56.8 °F 65% 29.85 in 10.0 mi SW 4.6 mph - N/A   Clear
11:55 PM 69.3 °F 56.3 °F 63% 29.85 in 10.0 mi SW 4.6 mph - N/A   Clear